createdAt,value
2022-12-13T00:02:26.011Z,97076.21
2022-12-13T00:04:54.163Z,97078.70
2022-12-13T00:07:22.153Z,97076.46
2022-12-13T00:09:50.210Z,97078.52
2022-12-13T00:12:18.349Z,97081.45
2022-12-13T00:14:46.419Z,97085.29
2022-12-13T00:17:14.455Z,97088.21
2022-12-13T00:19:42.453Z,97090.77
2022-12-13T00:22:10.380Z,97090.02
2022-12-13T00:24:44.417Z,97094.54
2022-12-13T00:27:14.293Z,97096.95
2022-12-13T00:29:42.407Z,97099.52
2022-12-13T00:32:10.425Z,97098.61
2022-12-13T00:34:38.391Z,97096.30
2022-12-13T00:37:06.355Z,97089.25
2022-12-13T00:39:34.276Z,97086.52
2022-12-13T00:42:02.287Z,97081.90
2022-12-13T00:44:31.275Z,97082.63
2022-12-13T00:46:59.244Z,97084.89
2022-12-13T00:49:27.418Z,97083.96
2022-12-13T00:51:55.468Z,97082.71
2022-12-13T00:54:23.486Z,97081.23
2022-12-13T00:56:51.707Z,97082.16
2022-12-13T00:59:38.022Z,97077.19
2022-12-13T01:02:06.002Z,97080.97
2022-12-13T01:04:34.220Z,97077.33
2022-12-13T01:07:02.128Z,97080.23
2022-12-13T01:09:32.505Z,97081.92
2022-12-13T01:12:03.343Z,97082.20
2022-12-13T01:14:32.421Z,97079.09
2022-12-13T01:17:00.637Z,97073.84
2022-12-13T01:19:29.955Z,97079.56
2022-12-13T01:22:00.163Z,97080.55
2022-12-13T01:24:29.863Z,97084.77
2022-12-13T01:26:58.582Z,97087.36
2022-12-13T01:29:27.100Z,97087.02
2022-12-13T01:31:55.151Z,97083.05
2022-12-13T01:34:26.285Z,97084.16
2022-12-13T01:36:58.223Z,97085.73
2022-12-13T01:39:27.699Z,97085.77
2022-12-13T01:41:59.809Z,97086.23
2022-12-13T01:44:56.386Z,97087.02
2022-12-13T01:47:40.264Z,97085.16
2022-12-13T01:50:17.087Z,97094.45
2022-12-13T01:52:45.986Z,97094.58
2022-12-13T01:55:16.532Z,97098.80
2022-12-13T01:57:48.166Z,97099.29
2022-12-13T02:00:17.370Z,97094.44
2022-12-13T02:02:46.970Z,97096.59
2022-12-13T02:05:22.718Z,97102.07
2022-12-13T02:07:51.577Z,97100.00
2022-12-13T02:10:19.809Z,97100.80
2022-12-13T02:12:48.098Z,97097.10
2022-12-13T02:15:18.659Z,97097.48
2022-12-13T02:17:56.038Z,97102.83
2022-12-13T02:21:02.829Z,97107.06
2022-12-13T02:23:43.023Z,97112.70
2022-12-13T02:26:34.526Z,97112.22
2022-12-13T02:29:11.612Z,97114.27
2022-12-13T02:31:50.844Z,97111.92
2022-12-13T02:34:22.703Z,97112.45
2022-12-13T02:37:04.702Z,97119.06
2022-12-13T02:40:00.876Z,97127.21
2022-12-13T02:42:37.049Z,97126.02
2022-12-13T02:45:21.264Z,97129.52
2022-12-13T02:47:54.833Z,97133.20
2022-12-13T02:50:26.404Z,97138.39
2022-12-13T02:53:14.321Z,97142.04
2022-12-13T02:55:42.457Z,97147.13
2022-12-13T02:58:16.402Z,97146.39
2022-12-13T03:01:03.171Z,97142.61
2022-12-13T03:04:09.873Z,97147.89
2022-12-13T03:06:46.972Z,97152.23
2022-12-13T03:09:44.343Z,97151.11
2022-12-13T03:12:59.747Z,97155.23
2022-12-13T03:15:41.296Z,97158.64
2022-12-13T03:18:17.192Z,97166.86
2022-12-13T03:20:47.636Z,97172.23
2022-12-13T03:23:33.653Z,97171.39
2022-12-13T03:26:25.812Z,97173.02
2022-12-13T03:28:54.182Z,97168.22
2022-12-13T03:31:22.726Z,97169.61
2022-12-13T03:33:50.943Z,97166.02
2022-12-13T03:36:19.742Z,97164.94
2022-12-13T03:38:49.637Z,97165.21
2022-12-13T03:41:21.951Z,97168.85
2022-12-13T03:43:50.724Z,97174.47
2022-12-13T03:46:20.120Z,97175.67
2022-12-13T03:49:06.160Z,97178.54
2022-12-13T03:51:34.972Z,97182.80
2022-12-13T03:54:05.737Z,97182.27
2022-12-13T03:56:51.045Z,97185.02
2022-12-13T03:59:19.167Z,97185.23
2022-12-13T04:01:47.263Z,97190.16
2022-12-13T04:04:15.321Z,97193.11
2022-12-13T04:06:43.880Z,97194.64
2022-12-13T04:09:11.976Z,97195.79
2022-12-13T04:11:58.596Z,97195.44
2022-12-13T04:14:26.669Z,97198.54
2022-12-13T04:16:54.712Z,97199.47
2022-12-13T04:19:23.972Z,97203.27
2022-12-13T04:21:56.219Z,97207.92
2022-12-13T04:24:30.939Z,97210.52
2022-12-13T04:27:01.604Z,97217.63
2022-12-13T04:29:34.198Z,97222.33
2022-12-13T04:32:04.627Z,97223.70
2022-12-13T04:35:00.972Z,97227.86
2022-12-13T04:37:43.278Z,97235.20
2022-12-13T04:40:12.287Z,97236.27
2022-12-13T04:42:40.709Z,97235.70
2022-12-13T04:45:15.172Z,97231.98
2022-12-13T04:47:43.479Z,97238.33
2022-12-13T04:50:11.958Z,97246.09
2022-12-13T04:52:40.773Z,97247.73
2022-12-13T04:55:10.391Z,97251.60
2022-12-13T04:57:40.269Z,97249.16
2022-12-13T05:00:26.059Z,97253.09
2022-12-13T05:02:54.302Z,97252.63
2022-12-13T05:05:22.850Z,97254.13
2022-12-13T05:08:08.532Z,97253.11
2022-12-13T05:10:38.261Z,97256.91
2022-12-13T05:13:07.028Z,97257.91
2022-12-13T05:15:35.260Z,97256.29
2022-12-13T05:18:20.734Z,97257.84
2022-12-13T05:20:51.200Z,97259.66
2022-12-13T05:23:22.600Z,97260.44
2022-12-13T05:25:51.813Z,97260.90
2022-12-13T05:28:27.749Z,97261.97
2022-12-13T05:30:59.560Z,97265.05
2022-12-13T05:33:28.861Z,97262.34
2022-12-13T05:36:01.299Z,97265.43
2022-12-13T05:38:30.391Z,97265.29
2022-12-13T05:40:58.836Z,97266.11
2022-12-13T05:43:42.380Z,97262.46
2022-12-13T05:46:13.444Z,97264.92
2022-12-13T05:48:44.443Z,97263.05
2022-12-13T05:51:12.675Z,97264.66
2022-12-13T05:53:42.707Z,97264.80
2022-12-13T05:56:11.804Z,97268.02
2022-12-13T05:58:40.623Z,97273.34
2022-12-13T06:01:14.149Z,97275.39
2022-12-13T06:03:44.433Z,97278.37
2022-12-13T06:06:13.978Z,97284.54
2022-12-13T06:08:42.253Z,97289.34
2022-12-13T06:11:12.297Z,97288.59
2022-12-13T06:13:43.544Z,97296.21
2022-12-13T06:16:29.441Z,97296.39
2022-12-13T06:19:03.617Z,97301.70
2022-12-13T06:21:41.245Z,97300.65
2022-12-13T06:24:15.996Z,97306.45
2022-12-13T06:26:45.700Z,97306.81
2022-12-13T06:29:23.859Z,97308.71
2022-12-13T06:32:02.036Z,97312.18
2022-12-13T06:34:34.733Z,97316.70
2022-12-13T06:37:07.388Z,97321.62
2022-12-13T06:39:35.735Z,97328.65
2022-12-13T06:42:09.242Z,97330.65
2022-12-13T06:44:37.625Z,97331.05
2022-12-13T06:47:11.713Z,97338.27
2022-12-13T06:49:43.718Z,97334.19
2022-12-13T06:52:14.377Z,97337.27
2022-12-13T06:54:43.862Z,97337.35
2022-12-13T06:57:14.992Z,97338.48
2022-12-13T06:59:43.617Z,97338.20
2022-12-13T07:02:24.309Z,97345.40
2022-12-13T07:04:56.654Z,97345.41
2022-12-13T07:07:26.431Z,97342.82
2022-12-13T07:09:54.710Z,97339.10
2022-12-13T07:12:23.510Z,97341.16
2022-12-13T07:14:51.758Z,97340.29
2022-12-13T07:17:34.167Z,97346.88
2022-12-13T07:20:11.164Z,97345.23
2022-12-13T07:22:46.807Z,97355.59
2022-12-13T07:25:27.170Z,97353.92
2022-12-13T07:28:03.315Z,97358.20
2022-12-13T07:30:41.364Z,97360.27
2022-12-13T07:33:10.839Z,97359.65
2022-12-13T07:35:39.780Z,97360.37
2022-12-13T07:38:10.231Z,97365.86
2022-12-13T07:40:58.832Z,97362.80
2022-12-13T07:43:27.255Z,97365.38
2022-12-13T07:46:13.471Z,97367.98
2022-12-13T07:48:42.072Z,97366.63
2022-12-13T07:51:14.391Z,97362.71
2022-12-13T07:53:42.831Z,97364.13
2022-12-13T07:56:12.683Z,97363.77
2022-12-13T07:58:58.922Z,97364.34
2022-12-13T08:01:27.216Z,97363.01
2022-12-13T08:03:57.011Z,97360.60
2022-12-13T08:06:25.101Z,97365.23
2022-12-13T08:08:57.332Z,97370.78
2022-12-13T08:11:26.156Z,97371.94
2022-12-13T08:14:11.699Z,97373.98
2022-12-13T08:16:57.363Z,97377.39
2022-12-13T08:19:25.684Z,97377.33
2022-12-13T08:21:56.897Z,97383.19
2022-12-13T08:24:28.799Z,97384.92
2022-12-13T08:27:14.452Z,97385.39
2022-12-13T08:29:44.025Z,97384.97
2022-12-13T08:32:29.457Z,97386.11
2022-12-13T08:34:57.828Z,97384.94
2022-12-13T08:37:43.257Z,97385.02
2022-12-13T08:40:12.234Z,97384.57
2022-12-13T08:42:58.540Z,97383.09
2022-12-13T08:45:29.664Z,97379.05
2022-12-13T08:47:59.812Z,97376.94
2022-12-13T08:50:31.931Z,97378.56
2022-12-13T08:53:00.211Z,97379.61
2022-12-13T08:55:31.551Z,97373.48
2022-12-13T08:58:07.469Z,97368.45
2022-12-13T09:00:37.465Z,97367.84
2022-12-13T09:03:10.230Z,97367.39
2022-12-13T09:05:39.230Z,97364.04
2022-12-13T09:08:24.328Z,97361.52
2022-12-13T09:11:11.547Z,97354.13
2022-12-13T09:14:01.229Z,97356.85
2022-12-13T09:16:39.352Z,97356.16
2022-12-13T09:19:26.139Z,97355.25
2022-12-13T09:22:02.715Z,97354.10
2022-12-13T09:24:36.229Z,97351.15
2022-12-13T09:27:10.265Z,97350.73
2022-12-13T09:29:39.623Z,97350.68
2022-12-13T09:32:08.449Z,97347.58
2022-12-13T09:34:55.407Z,97349.67
2022-12-13T09:37:30.711Z,97351.52
2022-12-13T09:40:25.427Z,97354.23
2022-12-13T09:43:13.601Z,97354.73
2022-12-13T09:45:54.468Z,97353.84
2022-12-13T09:48:34.937Z,97349.30
2022-12-13T09:51:18.275Z,97347.83
2022-12-13T09:53:59.738Z,97342.09
2022-12-13T09:56:28.608Z,97341.39
2022-12-13T09:58:57.908Z,97340.34
2022-12-13T10:01:26.727Z,97343.27
2022-12-13T10:03:59.526Z,97341.46
2022-12-13T10:06:32.819Z,97336.00
2022-12-13T10:09:11.405Z,97334.70
2022-12-13T10:11:52.407Z,97335.83
2022-12-13T10:14:32.182Z,97336.40
2022-12-13T10:17:05.966Z,97331.88
2022-12-13T10:19:47.318Z,97331.56
2022-12-13T10:22:19.878Z,97330.59
2022-12-13T10:24:52.194Z,97329.47
2022-12-13T10:27:26.744Z,97323.31
2022-12-13T10:30:15.371Z,97325.45
2022-12-13T10:32:56.018Z,97322.98
2022-12-13T10:35:25.360Z,97317.34
2022-12-13T10:38:01.371Z,97320.71
2022-12-13T10:40:40.790Z,97320.41
2022-12-13T10:43:14.716Z,97321.44
2022-12-13T10:45:59.259Z,97320.52
2022-12-13T10:48:48.313Z,97314.20
2022-12-13T10:51:20.428Z,97309.88
2022-12-13T10:54:00.737Z,97314.61
2022-12-13T10:57:01.940Z,97307.73
2022-12-13T10:59:38.738Z,97303.85
2022-12-13T11:02:39.684Z,97300.48
2022-12-13T11:05:29.993Z,97295.20
2022-12-13T11:08:13.830Z,97294.96
2022-12-13T11:10:42.973Z,97294.75
2022-12-13T11:13:25.768Z,97292.48
2022-12-13T11:16:12.017Z,97295.77
2022-12-13T11:18:43.582Z,97296.91
2022-12-13T11:21:12.532Z,97295.39
2022-12-13T11:23:45.768Z,97296.19
2022-12-13T11:26:24.243Z,97297.36
2022-12-13T11:29:13.035Z,97299.15
2022-12-13T11:31:47.412Z,97299.48
2022-12-13T11:34:28.721Z,97295.27
2022-12-13T11:37:17.634Z,97296.27
2022-12-13T11:40:01.355Z,97296.45
2022-12-13T11:42:39.783Z,97296.54
2022-12-13T11:45:32.049Z,97293.67
2022-12-13T11:48:10.420Z,97293.38
2022-12-13T11:50:55.920Z,97294.66
2022-12-13T11:53:46.319Z,97291.18
2022-12-13T11:56:30.548Z,97287.99
2022-12-13T11:59:40.671Z,97286.92
2022-12-13T12:02:35.547Z,97285.41
2022-12-13T12:05:26.372Z,97284.55
2022-12-13T12:08:31.647Z,97285.23
2022-12-13T12:11:01.470Z,97286.55
2022-12-13T12:13:51.327Z,97285.19
2022-12-13T12:16:37.751Z,97282.84
2022-12-13T12:19:16.180Z,97279.01
2022-12-13T12:22:14.512Z,97283.71
2022-12-13T12:24:57.346Z,97282.72
2022-12-13T12:27:48.365Z,97283.98
2022-12-13T12:30:23.478Z,97282.73
2022-12-13T12:33:19.719Z,97282.42
2022-12-13T12:35:49.319Z,97277.80
2022-12-13T12:38:48.888Z,97278.20
2022-12-13T12:41:39.336Z,97277.11
2022-12-13T12:44:40.731Z,97287.36
2022-12-13T12:50:25.043Z,97297.86
2022-12-13T12:53:17.436Z,97297.93
2022-12-13T12:56:07.036Z,97298.34
2022-12-13T12:59:05.024Z,97300.36
2022-12-13T13:01:45.637Z,97301.83
2022-12-13T13:04:22.733Z,97299.89
2022-12-13T13:07:01.477Z,97298.21
2022-12-13T13:09:34.411Z,97302.83
2022-12-13T13:12:29.272Z,97298.59
2022-12-13T13:14:53.811Z,97300.19
2022-12-13T13:17:25.324Z,97299.27
2022-12-13T13:20:01.602Z,97303.95
2022-12-13T13:22:44.167Z,97305.42
2022-12-13T13:25:31.129Z,97307.93
2022-12-13T13:28:02.347Z,97309.33
2022-12-13T13:30:30.963Z,97311.58
2022-12-13T13:33:51.209Z,97315.77
2022-12-13T13:36:41.220Z,97320.25
2022-12-13T13:39:38.330Z,97322.67
2022-12-13T13:42:15.422Z,97321.71
2022-12-13T13:44:46.805Z,97322.08
2022-12-13T13:47:17.203Z,97324.56
2022-12-13T13:49:48.531Z,97324.77
2022-12-13T13:52:25.699Z,97326.09
2022-12-13T13:55:22.967Z,97329.91
2022-12-13T13:58:09.226Z,97331.10
2022-12-13T14:01:04.624Z,97335.67
2022-12-13T14:04:07.248Z,97336.95
2022-12-13T14:07:15.098Z,97341.03
2022-12-13T14:09:50.091Z,97338.91
2022-12-13T14:12:56.561Z,97338.88
2022-12-13T14:15:40.127Z,97339.86
2022-12-13T14:18:49.714Z,97345.92
2022-12-13T14:21:42.376Z,97347.93
2022-12-13T14:24:39.960Z,97352.56
2022-12-13T14:27:39.835Z,97353.77
2022-12-13T14:30:26.987Z,97356.16
2022-12-13T14:32:57.093Z,97356.76
2022-12-13T14:35:29.214Z,97352.71
2022-12-13T14:38:00.422Z,97360.48
2022-12-13T14:40:36.584Z,97361.80
2022-12-13T14:43:05.808Z,97362.87
2022-12-13T14:45:38.786Z,97367.70
2022-12-13T14:48:15.527Z,97371.36
2022-12-13T14:50:57.365Z,97372.09
2022-12-13T14:53:27.761Z,97380.42
2022-12-13T14:56:09.958Z,97381.55
2022-12-13T14:58:41.039Z,97384.48
2022-12-13T15:01:29.565Z,97382.81
2022-12-13T15:04:17.500Z,97382.34
2022-12-13T15:06:48.789Z,97384.86
2022-12-13T15:09:19.313Z,97393.54
2022-12-13T15:11:49.034Z,97401.48
2022-12-13T15:14:21.285Z,97400.46
2022-12-13T15:16:51.761Z,97399.39
2022-12-13T15:19:30.083Z,97400.17
2022-12-13T15:22:07.778Z,97402.87
2022-12-13T15:24:49.831Z,97403.71
2022-12-13T15:27:25.312Z,97405.46
2022-12-13T15:29:54.618Z,97411.77
2022-12-13T15:32:23.515Z,97410.95
2022-12-13T15:34:52.583Z,97412.83
2022-12-13T15:37:30.380Z,97416.54
2022-12-13T15:40:09.011Z,97417.05
2022-12-13T15:42:44.855Z,97420.06
2022-12-13T15:45:33.218Z,97418.56
2022-12-13T15:48:06.577Z,97418.44
2022-12-13T15:50:45.446Z,97423.83
2022-12-13T15:53:25.717Z,97420.50
2022-12-13T15:55:56.762Z,97421.06
2022-12-13T15:58:36.075Z,97417.63
2022-12-13T16:01:11.674Z,97414.96
2022-12-13T16:03:47.522Z,97418.63
2022-12-13T16:06:22.412Z,97419.59
2022-12-13T16:08:52.227Z,97422.06
2022-12-13T16:11:48.068Z,97420.52
2022-12-13T16:14:28.217Z,97424.00
2022-12-13T16:17:01.538Z,97423.59
2022-12-13T16:19:37.355Z,97422.42
2022-12-13T16:22:08.752Z,97420.40
2022-12-13T16:24:39.453Z,97425.26
2022-12-13T16:27:09.629Z,97424.55
2022-12-13T16:29:38.587Z,97425.61
2022-12-13T16:32:08.144Z,97427.37
2022-12-13T16:34:39.516Z,97432.34
2022-12-13T16:37:26.772Z,97435.69
2022-12-13T16:39:56.827Z,97437.97
2022-12-13T16:42:27.197Z,97433.39
2022-12-13T16:45:40.713Z,97438.90
2022-12-13T16:47:49.587Z,97433.50
2022-12-13T16:50:23.106Z,97431.70
2022-12-13T16:52:51.734Z,97430.61
2022-12-13T16:55:19.717Z,97427.80
2022-12-13T16:58:18.166Z,97426.56
2022-12-13T17:00:46.935Z,97426.81
2022-12-13T17:03:15.653Z,97425.43
2022-12-13T17:05:46.935Z,97422.61
2022-12-13T17:08:15.894Z,97423.61
2022-12-13T17:10:47.422Z,97426.45
2022-12-13T17:13:27.698Z,97424.49
2022-12-13T17:15:59.361Z,97427.13
2022-12-13T17:18:28.548Z,97429.84
2022-12-13T17:20:58.666Z,97433.92
2022-12-13T17:23:27.951Z,97435.05
2022-12-13T17:25:58.694Z,97434.62
2022-12-13T17:28:27.125Z,97438.69
2022-12-13T17:31:14.890Z,97438.39
2022-12-13T17:33:44.592Z,97443.91
2022-12-13T17:36:14.380Z,97444.20
2022-12-13T17:38:45.850Z,97443.69
2022-12-13T17:41:15.657Z,97445.00
2022-12-13T17:43:45.266Z,97447.86
2022-12-13T17:46:16.783Z,97446.86
2022-12-13T17:48:48.373Z,97448.88
2022-12-13T17:51:18.920Z,97449.06
2022-12-13T17:53:47.039Z,97446.65
2022-12-13T17:56:17.782Z,97450.41
2022-12-13T17:58:46.688Z,97449.60
2022-12-13T18:01:18.966Z,97448.88
2022-12-13T18:03:51.644Z,97450.23
2022-12-13T18:06:19.977Z,97449.09
2022-12-13T18:08:52.230Z,97446.69
2022-12-13T18:11:33.037Z,97455.86
2022-12-13T18:14:07.483Z,97463.95
2022-12-13T18:16:39.228Z,97462.27
2022-12-13T18:19:11.327Z,97465.05
2022-12-13T18:21:39.951Z,97456.73
2022-12-13T18:24:09.577Z,97455.40
2022-12-13T18:26:37.703Z,97453.97
2022-12-13T18:29:06.337Z,97453.75
2022-12-13T18:31:36.302Z,97454.75
2022-12-13T18:34:05.313Z,97454.05
2022-12-13T18:36:34.027Z,97454.91
2022-12-13T18:39:03.209Z,97449.61
2022-12-13T18:41:32.332Z,97449.56
2022-12-13T18:44:03.827Z,97453.92
2022-12-13T18:46:35.401Z,97452.10
2022-12-13T18:49:06.530Z,97450.83
2022-12-13T18:51:35.383Z,97451.57
2022-12-13T18:54:04.548Z,97451.56
2022-12-13T18:56:32.480Z,97448.21
2022-12-13T18:59:00.751Z,97449.74
2022-12-13T19:01:30.583Z,97451.39
2022-12-13T19:03:58.916Z,97455.32
2022-12-13T19:06:28.631Z,97456.28
2022-12-13T19:08:58.582Z,97458.05
2022-12-13T19:11:28.021Z,97463.80
2022-12-13T19:13:58.334Z,97470.60
2022-12-13T19:16:26.834Z,97470.10
2022-12-13T19:18:55.533Z,97469.94
2022-12-13T19:21:24.286Z,97472.12
2022-12-13T19:23:57.720Z,97470.21
2022-12-13T19:26:28.855Z,97471.08
2022-12-13T19:28:59.845Z,97473.57
2022-12-13T19:31:32.012Z,97472.96
2022-12-13T19:34:02.104Z,97472.08
2022-12-13T19:36:32.153Z,97470.98
2022-12-13T19:39:00.375Z,97470.96
2022-12-13T19:41:29.650Z,97471.80
2022-12-13T19:43:58.258Z,97470.83
2022-12-13T19:46:27.237Z,97469.30
2022-12-13T19:48:55.410Z,97469.77
2022-12-13T19:51:23.849Z,97461.55
2022-12-13T19:53:52.395Z,97462.55
2022-12-13T19:56:21.992Z,97462.71
2022-12-13T19:58:51.441Z,97460.46
2022-12-13T20:01:19.712Z,97459.90
2022-12-13T20:03:48.197Z,97460.23
2022-12-13T20:06:20.669Z,97459.55
2022-12-13T20:08:50.676Z,97458.00
2022-12-13T20:11:22.112Z,97453.45
2022-12-13T20:13:54.740Z,97458.49
2022-12-13T20:16:26.971Z,97456.51
2022-12-13T20:18:58.423Z,97453.56
2022-12-13T20:21:28.027Z,97461.84
2022-12-13T20:23:57.750Z,97460.32
2022-12-13T20:26:31.474Z,97466.86
2022-12-13T20:29:00.501Z,97474.66
2022-12-13T20:31:32.278Z,97472.13
2022-12-13T20:34:03.707Z,97471.52
2022-12-13T20:36:31.794Z,97476.33
2022-12-13T20:39:02.181Z,97478.83
2022-12-13T20:41:33.671Z,97480.39
2022-12-13T20:44:04.576Z,97484.29
2022-12-13T20:46:33.968Z,97486.80
2022-12-13T20:49:05.424Z,97491.45
2022-12-13T20:51:35.625Z,97485.48
2022-12-13T20:54:05.066Z,97484.25
2022-12-13T20:56:36.245Z,97479.87
2022-12-13T20:59:06.834Z,97480.52
2022-12-13T21:01:43.468Z,97476.41
2022-12-13T21:04:12.241Z,97476.19
2022-12-13T21:06:41.798Z,97476.23
2022-12-13T21:09:11.342Z,97475.76
2022-12-13T21:11:45.573Z,97472.89
2022-12-13T21:14:22.259Z,97474.30
2022-12-13T21:16:59.768Z,97471.23
2022-12-13T21:19:37.569Z,97473.25
2022-12-13T21:22:07.990Z,97471.01
2022-12-13T21:24:36.068Z,97473.78
2022-12-13T21:27:04.670Z,97480.54
2022-12-13T21:29:32.886Z,97481.48
2022-12-13T21:32:00.986Z,97480.33
2022-12-13T21:34:30.231Z,97486.02
2022-12-13T21:36:59.340Z,97483.61
2022-12-13T21:39:31.066Z,97477.73
2022-12-13T21:41:59.168Z,97476.11
2022-12-13T21:44:28.027Z,97477.13
2022-12-13T21:47:13.391Z,97481.15
2022-12-13T21:49:42.186Z,97482.61
2022-12-13T21:52:17.736Z,97485.77
2022-12-13T21:54:45.851Z,97485.82
2022-12-13T21:57:32.581Z,97484.53
2022-12-13T22:00:00.575Z,97485.14
2022-12-13T22:02:28.712Z,97484.83
2022-12-13T22:04:58.981Z,97488.61
2022-12-13T22:07:29.544Z,97487.14
2022-12-13T22:09:59.520Z,97489.66
2022-12-13T22:12:33.782Z,97486.13
2022-12-13T22:15:03.033Z,97487.54
2022-12-13T22:17:35.696Z,97491.05
2022-12-13T22:20:10.594Z,97494.60
2022-12-13T22:22:40.479Z,97492.67
2022-12-13T22:25:09.541Z,97490.70
2022-12-13T22:27:37.849Z,97491.13
2022-12-13T22:30:06.774Z,97487.77
2022-12-13T22:32:34.799Z,97492.54
2022-12-13T22:35:05.024Z,97493.62
2022-12-13T22:37:33.418Z,97493.14
2022-12-13T22:40:01.889Z,97492.64
2022-12-13T22:42:29.753Z,97498.55
2022-12-13T22:44:57.712Z,97500.91
2022-12-13T22:47:25.816Z,97504.66
2022-12-13T22:49:53.838Z,97505.66
2022-12-13T22:52:21.711Z,97502.16
2022-12-13T22:54:51.685Z,97502.59
2022-12-13T22:57:19.593Z,97500.93
2022-12-13T22:59:47.641Z,97501.17
2022-12-13T23:02:15.668Z,97501.45
2022-12-13T23:04:43.875Z,97506.08
2022-12-13T23:07:11.921Z,97503.81
2022-12-13T23:09:39.965Z,97494.34
2022-12-13T23:12:28.079Z,97498.77
2022-12-13T23:14:56.256Z,97499.41
2022-12-13T23:17:24.159Z,97497.68
2022-12-13T23:19:53.408Z,97499.52
2022-12-13T23:22:25.365Z,97497.67
2022-12-13T23:24:53.686Z,97497.73
2022-12-13T23:27:23.226Z,97492.86
2022-12-13T23:29:51.724Z,97492.20
2022-12-13T23:32:20.353Z,97489.95
2022-12-13T23:34:49.371Z,97484.45
2022-12-13T23:37:17.567Z,97484.64
2022-12-13T23:39:45.535Z,97482.30
2022-12-13T23:42:13.536Z,97482.13
2022-12-13T23:44:41.938Z,97475.48
2022-12-13T23:47:09.894Z,97474.08
2022-12-13T23:49:37.976Z,97473.77
2022-12-13T23:52:05.879Z,97476.45
2022-12-13T23:54:33.921Z,97471.76
2022-12-13T23:57:02.024Z,97470.98
2022-12-13T23:59:30.000Z,97471.16
